Airfield :







YOU CAN JOIN US ON...

 
LOGIN :

Register | Disclaimer

   EN    FR    IT 

 









Legend :    VFR   Marginal VFR   IFR   Intensive IFR   Very Intensive IFR
Visi :
Ceiling :
>= 8 km
>= 3000ft
5 to 8 km
1000 to 3000 ft
1500m to 5 km
500 to 1000 ft
800 to 1500m
200 to 500 ft
< 800m
< 200 ft
Symbols :   Thunderstorms  Fog  Heavy snow  Heavy precipitations  Wind > 20 kt






- Airport Elevation : 461 ft
- IATA code : YYT


CYYT - St John's Int

CURRENT METAR :
  • 191500Z 27010KT 15SM FEW015 OVC220 M12/M15 A3014 RMK SC1CI7 VIA CYHZ SLP221

EXPIRED METARs :
  • 191400Z 27010KT 15SM FEW015 BKN220 M12/M15 A3016 RMK SC2CS5 VIA CYHZ SLP226
  • 191300Z 27010KT 15SM FEW012 BKN220 M13/M16 A3015 RMK SF2CI5 VIA CYHZ SLP223
  • 191200Z 27010KT 15SM FEW012 BKN220 M14/M16 A3013 RMK SF2CI5 VIA CYHZ SLP218

TAF TAF CYYT
Valid from the 19 at 12:00 until the 20 at 12:00 UTC


191138Z 1912/2012 25015KT P6SM SCT015
TEMPO 1912/1915 BKN015
FM191700 21008KT P6SM FEW020 BKN120
FM192000 17010KT P6SM BKN015 OVC080
FM192300 14020G30KT 2SM -SN SCT007 OVC012
FM200100 13025G40KT 1/4SM SN +BLSN VV003
FM200600 15025G40KT 2SM -SNRA BR OVC006
FM200800 22020G30KT P6SM -RA BKN007 OVC020
FM201000 23020G30KT P6SM BKN015 RMK NXT FCST BY 191800Z



MET'MAP, your aeronautical weather chart ! - Copyright ORBIFLY December 2007 - Disclaimer

ORBIFLY MET'MAP TEAM :

Programming & Development : Alexandra Zaïnal
Concept & original design : Baudouin d'Aumeries
Assistance for programming : Marc-Olivier Méhu
Technical & hardware support : Manuel Goepfert

Contact : metmap@orbifly.com




SOURCES & CREDITS :

   NOAA